Säätilassa ei varoituksia.

Lähimmät METAR asemat

 

EFPO - Pori (mil/Civ), Finland
Distance from station: PLU 42km
Päivitetty: 24/01/2020 04:50
Selkeätä
Selkeätä
 Wind from L
Tuuli: L 17 km/h
Lämpötila: 4°C
Wind Chill: 0°C
Kastepiste: 0°C
Kosteus: 75%
Ilmanpaine: 1000 hPa
Yhteenveto: Selkeätä
Visibility: greater than 10 km
2020/01/24 02:50 EFPO 240250Z AUTO 26009KT CAVOK 04/M00 Q1000
EFTU - Turku/Abo, Finland
Distance from station: E 68km
Päivitetty: 24/01/2020 04:50
Showers, Puolipilvistä
Showers, Puolipilvistä
 Wind from L
Tuuli: L 7 km/h
Lämpötila: 2°C
Wind Chill: 0°C
Kastepiste: 0°C
Kosteus: 87%
Ilmanpaine: 1001 hPa
Yhteenveto: Showers
Clouds: Puolipilvistä
Visibility: 10 km
2020/01/24 02:50 EFTU 240250Z AUTO 28004KT 9999 SHUP NSC 02/00 Q1001
 
EFTP - Tampere/Pirkkala, Finland
Distance from station: IKO 84km
Päivitetty: 24/01/2020 04:50
Selkeätä
Selkeätä
 Wind from LLO
Tuuli: LLO 19 km/h
Lämpötila: 0°C
Wind Chill: -5°C
Kastepiste: -1°C
Kosteus: 93%
Ilmanpaine: 998 hPa
Yhteenveto: Selkeätä
Visibility: greater than 10 km
2020/01/24 02:50 EFTP 240250Z AUTO 24010KT CAVOK 00/M01 Q0998